createdAt,value
2022-09-23T00:02:03.933Z,99506.06
2022-09-23T00:04:36.856Z,99499.52
2022-09-23T00:07:09.680Z,99501.41
2022-09-23T00:09:43.380Z,99497.45
2022-09-23T00:12:16.015Z,99493.23
2022-09-23T00:14:49.639Z,99492.06
2022-09-23T00:17:23.763Z,99488.07
2022-09-23T00:19:55.960Z,99495.92
2022-09-23T00:22:28.895Z,99498.73
2022-09-23T00:25:02.350Z,99501.99
2022-09-23T00:27:37.030Z,99508.02
2022-09-23T00:30:11.871Z,99509.09
2022-09-23T00:32:45.335Z,99510.21
2022-09-23T00:35:18.523Z,99508.84
2022-09-23T00:37:51.786Z,99496.09
2022-09-23T00:40:25.233Z,99491.22
2022-09-23T00:42:57.874Z,99490.67
2022-09-23T00:45:31.430Z,99505.06
2022-09-23T00:48:05.592Z,99501.62
2022-09-23T00:50:43.646Z,99493.72
2022-09-23T00:53:20.183Z,99499.89
2022-09-23T00:55:57.877Z,99501.14
2022-09-23T00:58:34.092Z,99504.30
2022-09-23T01:01:07.463Z,99502.75
2022-09-23T01:03:40.793Z,99499.32
2022-09-23T01:06:14.498Z,99480.88
2022-09-23T01:08:48.456Z,99495.21
2022-09-23T01:11:38.464Z,99484.07
2022-09-23T01:14:32.341Z,99481.70
2022-09-23T01:17:24.675Z,99481.05
2022-09-23T01:20:33.789Z,99494.90
2022-09-23T01:23:37.188Z,99486.44
2022-09-23T01:26:43.336Z,99488.47
2022-09-23T01:29:53.776Z,99482.69
2022-09-23T01:33:00.772Z,99469.09
2022-09-23T01:36:05.719Z,99465.11
2022-09-23T01:38:57.319Z,99476.75
2022-09-23T01:41:40.982Z,99493.81
2022-09-23T01:44:34.649Z,99503.22
2022-09-23T01:47:14.900Z,99514.45
2022-09-23T01:50:06.182Z,99511.02
2022-09-23T01:52:43.790Z,99512.39
2022-09-23T01:55:24.172Z,99509.77
2022-09-23T01:58:02.974Z,99503.36
2022-09-23T02:00:41.025Z,99489.42
2022-09-23T02:03:18.695Z,99486.16
2022-09-23T02:05:58.023Z,99482.75
2022-09-23T02:08:41.097Z,99479.76
2022-09-23T02:11:16.392Z,99474.21
2022-09-23T02:13:56.994Z,99464.05
2022-09-23T02:16:48.590Z,99462.16
2022-09-23T02:19:42.140Z,99464.28
2022-09-23T02:22:31.356Z,99464.58
2022-09-23T02:25:04.217Z,99476.22
2022-09-23T02:27:57.397Z,99476.61
2022-09-23T02:30:33.612Z,99479.23
2022-09-23T02:33:13.562Z,99480.89
2022-09-23T02:36:08.442Z,99467.01
2022-09-23T02:38:54.094Z,99455.18
2022-09-23T02:41:37.520Z,99462.59
2022-09-23T02:44:13.873Z,99469.13
2022-09-23T02:46:47.219Z,99476.36
2022-09-23T02:49:33.057Z,99469.23
2022-09-23T02:52:07.970Z,99476.95
2022-09-23T02:54:41.091Z,99475.44
2022-09-23T02:57:14.837Z,99467.17
2022-09-23T02:59:47.595Z,99461.88
2022-09-23T03:02:56.316Z,99447.73
2022-09-23T03:05:36.925Z,99450.55
2022-09-23T03:08:49.102Z,99461.00
2022-09-23T03:11:22.498Z,99468.02
2022-09-23T03:14:30.847Z,99465.34
2022-09-23T03:17:20.362Z,99465.34
2022-09-23T03:20:09.977Z,99468.34
2022-09-23T03:22:46.671Z,99476.55
2022-09-23T03:25:22.782Z,99483.02
2022-09-23T03:27:58.790Z,99487.42
2022-09-23T03:30:34.744Z,99477.72
2022-09-23T03:33:10.637Z,99479.84
2022-09-23T03:36:13.832Z,99479.84
2022-09-23T03:38:51.218Z,99492.65
2022-09-23T03:41:31.580Z,99501.93
2022-09-23T03:44:04.646Z,99510.33
2022-09-23T03:46:38.384Z,99517.81
2022-09-23T03:49:32.868Z,99519.25
2022-09-23T03:52:05.793Z,99520.63
2022-09-23T03:54:38.687Z,99518.63
2022-09-23T03:57:13.263Z,99516.52
2022-09-23T03:59:46.150Z,99503.02
2022-09-23T04:02:21.446Z,99489.39
2022-09-23T04:04:55.080Z,99488.45
2022-09-23T04:07:28.080Z,99482.73
2022-09-23T04:10:01.642Z,99476.42
2022-09-23T04:12:34.855Z,99466.16
2022-09-23T04:15:09.066Z,99454.14
2022-09-23T04:17:42.249Z,99443.55
2022-09-23T04:20:15.585Z,99447.05
2022-09-23T04:22:49.237Z,99452.08
2022-09-23T04:25:22.272Z,99459.27
2022-09-23T04:27:55.323Z,99460.94
2022-09-23T04:30:28.392Z,99459.92
2022-09-23T04:33:01.594Z,99448.03
2022-09-23T04:35:39.358Z,99457.37
2022-09-23T04:38:10.275Z,99468.67
2022-09-23T04:40:43.527Z,99473.95
2022-09-23T04:43:17.835Z,99476.64
2022-09-23T04:46:02.422Z,99471.05
2022-09-23T04:48:37.509Z,99465.15
2022-09-23T04:51:16.463Z,99474.36
2022-09-23T04:53:52.469Z,99476.19
2022-09-23T04:56:29.224Z,99455.88
2022-09-23T04:59:05.084Z,99448.03
2022-09-23T05:01:38.827Z,99440.84
2022-09-23T05:04:17.086Z,99435.06
2022-09-23T05:06:50.189Z,99420.52
2022-09-23T05:09:24.865Z,99415.54
2022-09-23T05:11:57.941Z,99426.67
2022-09-23T05:14:31.862Z,99421.27
2022-09-23T05:17:05.094Z,99421.39
2022-09-23T05:19:38.831Z,99419.30
2022-09-23T05:22:11.936Z,99432.50
2022-09-23T05:24:45.164Z,99432.23
2022-09-23T05:27:18.202Z,99431.25
2022-09-23T05:29:52.881Z,99436.09
2022-09-23T05:32:26.630Z,99457.28
2022-09-23T05:34:59.891Z,99457.39
2022-09-23T05:37:33.477Z,99451.97
2022-09-23T05:40:07.627Z,99442.17
2022-09-23T05:42:40.479Z,99444.72
2022-09-23T05:45:13.411Z,99449.16
2022-09-23T05:47:46.584Z,99445.11
2022-09-23T05:50:19.895Z,99448.64
2022-09-23T05:52:53.093Z,99441.69
2022-09-23T05:55:27.408Z,99445.05
2022-09-23T05:58:01.289Z,99439.89
2022-09-23T06:00:34.777Z,99458.61
2022-09-23T06:03:15.112Z,99463.02
2022-09-23T06:05:49.072Z,99454.88
2022-09-23T06:08:22.276Z,99457.50
2022-09-23T06:10:55.287Z,99461.84
2022-09-23T06:13:28.615Z,99466.41
2022-09-23T06:16:02.288Z,99470.46
2022-09-23T06:18:37.420Z,99484.09
2022-09-23T06:21:12.849Z,99480.16
2022-09-23T06:23:47.128Z,99493.44
2022-09-23T06:26:20.147Z,99493.89
2022-09-23T06:28:53.477Z,99496.11
2022-09-23T06:31:26.685Z,99493.01
2022-09-23T06:34:10.084Z,99486.11
2022-09-23T06:36:43.357Z,99493.14
2022-09-23T06:39:10.027Z,99482.97
2022-09-23T06:41:43.584Z,99485.91
2022-09-23T06:44:19.570Z,99481.17
2022-09-23T06:46:53.541Z,99486.05
2022-09-23T06:49:26.923Z,99488.66
2022-09-23T06:51:59.912Z,99490.95
2022-09-23T06:54:33.673Z,99483.86
2022-09-23T06:57:07.566Z,99485.23
2022-09-23T06:59:40.708Z,99489.97
2022-09-23T07:02:14.292Z,99497.75
2022-09-23T07:04:47.535Z,99499.97
2022-09-23T07:07:20.746Z,99496.50
2022-09-23T07:09:54.310Z,99491.34
2022-09-23T07:12:27.555Z,99488.09
2022-09-23T07:15:00.831Z,99486.78
2022-09-23T07:17:35.326Z,99487.61
2022-09-23T07:20:10.235Z,99481.13
2022-09-23T07:22:44.479Z,99486.09
2022-09-23T07:25:17.541Z,99494.33
2022-09-23T07:27:51.012Z,99493.09
2022-09-23T07:30:25.515Z,99490.59
2022-09-23T07:32:59.312Z,99481.99
2022-09-23T07:35:32.906Z,99487.87
2022-09-23T07:38:06.068Z,99483.31
2022-09-23T07:40:40.289Z,99489.67
2022-09-23T07:43:13.997Z,99481.95
2022-09-23T07:45:47.342Z,99501.05
2022-09-23T07:48:22.089Z,99495.15
2022-09-23T07:50:55.311Z,99499.69
2022-09-23T07:53:28.916Z,99503.19
2022-09-23T07:56:02.037Z,99501.88
2022-09-23T07:58:36.561Z,99498.86
2022-09-23T08:01:14.027Z,99487.11
2022-09-23T08:03:48.236Z,99480.29
2022-09-23T08:06:21.764Z,99490.02
2022-09-23T08:08:57.010Z,99484.73
2022-09-23T08:11:31.788Z,99476.17
2022-09-23T08:14:05.753Z,99470.62
2022-09-23T08:16:40.096Z,99467.02
2022-09-23T08:19:14.114Z,99459.86
2022-09-23T08:21:48.231Z,99453.80
2022-09-23T08:24:24.478Z,99458.61
2022-09-23T08:26:57.674Z,99460.95
2022-09-23T08:29:31.407Z,99471.66
2022-09-23T08:32:04.974Z,99484.89
2022-09-23T08:34:38.893Z,99480.63
2022-09-23T08:37:11.876Z,99477.21
2022-09-23T08:39:45.197Z,99476.33
2022-09-23T08:42:25.850Z,99490.19
2022-09-23T08:45:06.015Z,99488.05
2022-09-23T08:48:02.135Z,99499.08
2022-09-23T08:50:45.566Z,99505.73
2022-09-23T08:53:28.001Z,99502.32
2022-09-23T08:56:04.365Z,99510.84
2022-09-23T08:59:17.907Z,99535.78
2022-09-23T09:02:16.776Z,99539.77
2022-09-23T09:04:56.836Z,99528.86
2022-09-23T09:07:37.468Z,99535.95
2022-09-23T09:10:21.045Z,99534.22
2022-09-23T09:13:04.471Z,99535.16
2022-09-23T09:15:49.820Z,99536.73
2022-09-23T09:18:24.132Z,99536.91
2022-09-23T09:21:01.199Z,99513.72
2022-09-23T09:24:00.102Z,99515.38
2022-09-23T09:26:36.430Z,99520.13
2022-09-23T09:29:41.850Z,99536.50
2022-09-23T09:32:03.226Z,99517.30
2022-09-23T09:34:43.713Z,99501.39
2022-09-23T09:37:27.293Z,99508.67
2022-09-23T09:40:00.772Z,99502.44
2022-09-23T09:42:43.069Z,99503.14
2022-09-23T09:45:46.695Z,99510.84
2022-09-23T09:48:58.054Z,99510.19
2022-09-23T09:51:31.872Z,99502.19
2022-09-23T09:54:25.462Z,99504.58
2022-09-23T09:56:58.484Z,99510.20
2022-09-23T09:59:32.028Z,99512.45
2022-09-23T10:02:27.726Z,99511.06
2022-09-23T10:05:08.126Z,99509.83
2022-09-23T10:07:41.385Z,99504.86
2022-09-23T10:10:32.778Z,99508.41
2022-09-23T10:13:15.324Z,99505.86
2022-09-23T10:15:48.740Z,99504.65
2022-09-23T10:18:33.371Z,99516.07
2022-09-23T10:21:14.852Z,99519.19
2022-09-23T10:23:54.419Z,99516.30
2022-09-23T10:26:34.158Z,99514.65
2022-09-23T10:29:32.668Z,99510.41
2022-09-23T10:32:30.457Z,99515.36
2022-09-23T10:35:14.338Z,99520.56
2022-09-23T10:38:01.450Z,99527.19
2022-09-23T10:40:56.624Z,99533.77
2022-09-23T10:44:15.511Z,99533.48
2022-09-23T10:47:01.848Z,99535.14
2022-09-23T10:50:05.272Z,99537.91
2022-09-23T10:52:46.930Z,99524.25
2022-09-23T10:55:36.523Z,99520.81
2022-09-23T10:58:47.590Z,99533.59
2022-09-23T11:01:40.001Z,99534.82
2022-09-23T11:04:59.662Z,99544.68
2022-09-23T11:07:41.854Z,99533.54
2022-09-23T11:10:46.033Z,99540.87
2022-09-23T11:13:31.000Z,99545.83
2022-09-23T11:16:23.902Z,99526.67
2022-09-23T11:19:13.240Z,99539.20
2022-09-23T11:22:18.411Z,99529.73
2022-09-23T11:25:10.704Z,99528.23
2022-09-23T11:28:20.685Z,99533.39
2022-09-23T11:31:35.268Z,99532.00
2022-09-23T11:34:43.564Z,99524.31
2022-09-23T11:37:20.477Z,99533.41
2022-09-23T11:40:09.142Z,99525.91
2022-09-23T11:42:59.706Z,99529.77
2022-09-23T11:45:49.834Z,99524.70
2022-09-23T11:48:30.211Z,99527.34
2022-09-23T11:51:16.456Z,99528.66
2022-09-23T11:53:57.579Z,99527.78
2022-09-23T11:56:40.121Z,99538.06
2022-09-23T11:59:40.577Z,99538.47
2022-09-23T12:02:36.695Z,99528.14
2022-09-23T12:05:16.971Z,99525.47
2022-09-23T12:08:18.238Z,99519.68
2022-09-23T12:11:18.739Z,99519.13
2022-09-23T12:14:16.386Z,99526.82
2022-09-23T12:17:29.077Z,99533.63
2022-09-23T12:20:09.967Z,99535.42
2022-09-23T12:23:39.011Z,99532.88
2022-09-23T12:26:18.110Z,99537.58
2022-09-23T12:28:53.366Z,99535.31
2022-09-23T12:31:29.292Z,99538.19
2022-09-23T12:34:04.670Z,99532.64
2022-09-23T12:36:38.692Z,99541.94
2022-09-23T12:39:28.638Z,99537.91
2022-09-23T12:42:05.331Z,99543.05
2022-09-23T12:44:43.756Z,99550.27
2022-09-23T12:47:30.053Z,99558.52
2022-09-23T12:50:05.755Z,99552.70
2022-09-23T12:52:39.427Z,99560.51
2022-09-23T12:55:38.527Z,99568.36
2022-09-23T12:58:46.464Z,99554.38
2022-09-23T13:01:21.970Z,99549.87
2022-09-23T13:04:15.764Z,99547.48
2022-09-23T13:07:10.327Z,99552.38
2022-09-23T13:09:46.918Z,99551.22
2022-09-23T13:12:27.047Z,99552.66
2022-09-23T13:15:06.552Z,99559.76
2022-09-23T13:17:41.504Z,99559.87
2022-09-23T13:20:38.566Z,99559.59
2022-09-23T13:23:31.546Z,99563.06
2022-09-23T13:26:13.059Z,99569.17
2022-09-23T13:28:58.398Z,99564.78
2022-09-23T13:31:31.573Z,99561.82
2022-09-23T13:34:07.836Z,99559.22
2022-09-23T13:36:48.884Z,99566.21
2022-09-23T13:39:27.838Z,99571.41
2022-09-23T13:42:05.585Z,99559.59
2022-09-23T13:44:41.257Z,99569.47
2022-09-23T13:47:15.989Z,99568.63
2022-09-23T13:49:49.250Z,99573.86
2022-09-23T13:52:30.172Z,99580.85
2022-09-23T13:55:03.387Z,99589.19
2022-09-23T13:57:37.916Z,99581.17
2022-09-23T14:00:22.607Z,99586.80
2022-09-23T14:02:55.668Z,99582.18
2022-09-23T14:05:33.055Z,99588.16
2022-09-23T14:08:06.126Z,99592.03
2022-09-23T14:10:40.720Z,99597.70
2022-09-23T14:13:28.868Z,99594.98
2022-09-23T14:16:04.487Z,99600.16
2022-09-23T14:18:47.219Z,99606.54
2022-09-23T14:21:40.815Z,99604.10
2022-09-23T14:24:33.218Z,99609.27
2022-09-23T14:27:16.069Z,99610.02
2022-09-23T14:29:51.274Z,99613.45
2022-09-23T14:32:28.654Z,99617.31
2022-09-23T14:35:09.484Z,99615.11
2022-09-23T14:38:02.878Z,99605.99
2022-09-23T14:40:54.148Z,99602.92
2022-09-23T14:43:29.370Z,99596.30
2022-09-23T14:46:02.513Z,99601.96
2022-09-23T14:48:36.635Z,99595.22
2022-09-23T14:51:16.727Z,99594.30
2022-09-23T14:53:49.005Z,99594.30
2022-09-23T14:56:25.243Z,99603.47
2022-09-23T14:59:02.004Z,99605.48
2022-09-23T15:01:39.079Z,99611.57
2022-09-23T15:04:22.843Z,99621.61
2022-09-23T15:06:59.044Z,99621.00
2022-09-23T15:09:36.468Z,99627.48
2022-09-23T15:12:20.538Z,99633.91
2022-09-23T15:14:57.020Z,99630.58
2022-09-23T15:17:36.433Z,99625.48
2022-09-23T15:20:17.164Z,99636.23
2022-09-23T15:22:55.302Z,99642.63
2022-09-23T15:25:36.671Z,99645.06
2022-09-23T15:28:17.571Z,99656.11
2022-09-23T15:30:51.929Z,99650.39
2022-09-23T15:33:26.650Z,99652.57
2022-09-23T15:35:59.613Z,99650.47
2022-09-23T15:38:33.358Z,99654.69
2022-09-23T15:41:06.992Z,99654.09
2022-09-23T15:43:43.417Z,99664.15
2022-09-23T15:46:28.485Z,99656.03
2022-09-23T15:49:05.240Z,99653.84
2022-09-23T15:51:38.691Z,99661.61
2022-09-23T15:54:15.209Z,99665.78
2022-09-23T15:56:48.755Z,99661.58
2022-09-23T15:59:21.846Z,99666.72
2022-09-23T16:01:55.397Z,99667.05
2022-09-23T16:04:28.619Z,99667.85
2022-09-23T16:07:03.299Z,99666.77
2022-09-23T16:09:36.542Z,99678.13
2022-09-23T16:12:12.536Z,99674.08
2022-09-23T16:14:47.022Z,99670.38
2022-09-23T16:17:20.225Z,99665.39
2022-09-23T16:19:53.381Z,99674.07
2022-09-23T16:22:26.848Z,99676.64
2022-09-23T16:24:59.906Z,99676.92
2022-09-23T16:27:34.380Z,99681.23
2022-09-23T16:30:08.866Z,99679.86
2022-09-23T16:32:43.618Z,99679.75
2022-09-23T16:35:17.063Z,99670.23
2022-09-23T16:37:51.183Z,99673.87
2022-09-23T16:40:26.412Z,99674.19
2022-09-23T16:43:01.127Z,99670.08
2022-09-23T16:45:35.061Z,99675.46
2022-09-23T16:48:08.065Z,99677.36
2022-09-23T16:50:44.596Z,99678.04
2022-09-23T16:53:18.138Z,99686.55
2022-09-23T16:55:52.815Z,99691.16
2022-09-23T16:58:26.779Z,99688.98
2022-09-23T17:01:18.180Z,99685.66
2022-09-23T17:03:51.557Z,99684.91
2022-09-23T17:06:26.256Z,99690.09
2022-09-23T17:09:00.966Z,99697.45
2022-09-23T17:11:34.395Z,99700.08
2022-09-23T17:14:07.916Z,99697.40
2022-09-23T17:16:41.130Z,99697.83
2022-09-23T17:19:14.765Z,99695.02
2022-09-23T17:21:47.754Z,99697.09
2022-09-23T17:24:21.108Z,99686.55
2022-09-23T17:26:54.543Z,99693.16
2022-09-23T17:29:29.407Z,99693.59
2022-09-23T17:32:04.670Z,99693.98
2022-09-23T17:34:37.723Z,99689.60
2022-09-23T17:37:11.305Z,99694.41
2022-09-23T17:39:46.518Z,99693.98
2022-09-23T17:42:20.245Z,99701.03
2022-09-23T17:44:54.278Z,99706.70
2022-09-23T17:47:27.842Z,99697.80
2022-09-23T17:50:01.794Z,99700.02
2022-09-23T17:52:35.008Z,99698.95
2022-09-23T17:55:09.867Z,99694.31
2022-09-23T17:57:42.276Z,99693.25
2022-09-23T18:00:16.092Z,99695.68
2022-09-23T18:02:54.175Z,99691.20
2022-09-23T18:05:27.443Z,99703.35
2022-09-23T18:08:05.264Z,99705.84
2022-09-23T18:10:36.751Z,99704.05
2022-09-23T18:13:10.603Z,99715.08
2022-09-23T18:15:44.294Z,99711.58
2022-09-23T18:18:17.394Z,99711.84
2022-09-23T18:20:51.196Z,99721.30
2022-09-23T18:23:26.184Z,99724.98
2022-09-23T18:25:59.829Z,99717.42
2022-09-23T18:28:34.994Z,99715.09
2022-09-23T18:31:08.737Z,99710.48
2022-09-23T18:33:42.582Z,99705.67
2022-09-23T18:36:15.974Z,99703.45
2022-09-23T18:38:50.929Z,99706.92
2022-09-23T18:41:24.772Z,99710.23
2022-09-23T18:43:58.069Z,99715.76
2022-09-23T18:46:32.458Z,99722.66
2022-09-23T18:49:24.256Z,99712.00
2022-09-23T18:51:59.630Z,99701.66
2022-09-23T18:54:32.783Z,99716.77
2022-09-23T18:57:05.909Z,99718.33
2022-09-23T18:59:39.700Z,99712.15
2022-09-23T19:02:13.891Z,99707.34
2022-09-23T19:04:47.708Z,99715.62
2022-09-23T19:07:20.867Z,99715.65
2022-09-23T19:09:54.009Z,99720.49
2022-09-23T19:12:27.588Z,99720.95
2022-09-23T19:15:01.616Z,99719.58
2022-09-23T19:17:35.204Z,99718.16
2022-09-23T19:20:10.841Z,99721.59
2022-09-23T19:22:48.207Z,99727.72
2022-09-23T19:25:21.812Z,99722.84
2022-09-23T19:27:55.061Z,99720.02
2022-09-23T19:30:29.853Z,99720.70
2022-09-23T19:33:03.082Z,99725.66
2022-09-23T19:35:40.811Z,99720.33
2022-09-23T19:38:15.102Z,99718.45
2022-09-23T19:40:51.479Z,99717.44
2022-09-23T19:43:26.143Z,99716.38
2022-09-23T19:45:59.424Z,99711.50
2022-09-23T19:48:33.352Z,99704.16
2022-09-23T19:51:07.226Z,99707.45
2022-09-23T19:53:43.499Z,99708.61
2022-09-23T19:56:19.165Z,99706.78
2022-09-23T19:58:55.967Z,99707.66
2022-09-23T20:01:30.908Z,99713.31
2022-09-23T20:04:04.627Z,99701.62
2022-09-23T20:06:41.236Z,99698.58
2022-09-23T20:09:14.192Z,99700.31
2022-09-23T20:11:48.285Z,99706.28
2022-09-23T20:14:24.778Z,99704.70
2022-09-23T20:17:00.731Z,99699.13
2022-09-23T20:19:33.911Z,99707.17
2022-09-23T20:22:27.446Z,99702.77
2022-09-23T20:25:00.917Z,99709.65
2022-09-23T20:27:34.707Z,99719.89
2022-09-23T20:30:09.121Z,99720.91
2022-09-23T20:32:44.807Z,99734.97
2022-09-23T20:35:17.838Z,99740.89
2022-09-23T20:37:51.230Z,99741.28
2022-09-23T20:40:24.616Z,99747.88
2022-09-23T20:42:59.332Z,99745.34
2022-09-23T20:45:32.310Z,99739.30
2022-09-23T20:48:07.530Z,99734.82
2022-09-23T20:50:42.103Z,99728.21
2022-09-23T20:53:15.690Z,99736.97
2022-09-23T20:55:54.151Z,99738.52
2022-09-23T20:58:30.161Z,99738.87
2022-09-23T21:01:14.725Z,99738.38
2022-09-23T21:03:50.623Z,99733.99
2022-09-23T21:06:26.070Z,99729.50
2022-09-23T21:08:59.607Z,99726.81
2022-09-23T21:11:32.879Z,99727.23
2022-09-23T21:14:06.219Z,99723.25
2022-09-23T21:16:39.739Z,99718.09
2022-09-23T21:19:12.781Z,99715.48
2022-09-23T21:21:46.570Z,99714.78
2022-09-23T21:26:55.363Z,99714.86
2022-09-23T21:29:28.360Z,99722.62
2022-09-23T21:32:01.376Z,99724.20
2022-09-23T21:34:34.477Z,99725.37
2022-09-23T21:37:08.615Z,99720.77
2022-09-23T21:39:41.284Z,99714.48
2022-09-23T21:42:14.226Z,99721.28
2022-09-23T21:44:47.239Z,99717.95
2022-09-23T21:47:20.287Z,99713.57
2022-09-23T21:49:53.827Z,99719.25
2022-09-23T21:52:27.371Z,99710.88
2022-09-23T21:55:00.508Z,99721.98
2022-09-23T21:57:34.039Z,99721.38
2022-09-23T22:00:10.199Z,99718.54
2022-09-23T22:02:43.261Z,99713.55
2022-09-23T22:05:16.650Z,99717.16
2022-09-23T22:07:49.577Z,99703.76
2022-09-23T22:10:23.155Z,99711.17
2022-09-23T22:12:56.379Z,99699.62
2022-09-23T22:15:29.728Z,99708.95
2022-09-23T22:18:03.239Z,99710.59
2022-09-23T22:20:37.523Z,99717.86
2022-09-23T22:23:10.873Z,99719.81
2022-09-23T22:25:44.441Z,99710.45
2022-09-23T22:28:35.859Z,99712.37
2022-09-23T22:31:27.905Z,99713.02
2022-09-23T22:34:01.337Z,99708.56
2022-09-23T22:36:34.970Z,99707.73
2022-09-23T22:39:08.515Z,99708.64
2022-09-23T22:41:41.878Z,99717.28
2022-09-23T22:44:15.205Z,99707.66
2022-09-23T22:46:49.543Z,99704.58
2022-09-23T22:49:22.616Z,99705.80
2022-09-23T22:51:56.011Z,99707.49
2022-09-23T22:54:34.145Z,99709.72
2022-09-23T22:57:09.312Z,99711.91
2022-09-23T22:59:44.505Z,99712.64
2022-09-23T23:02:23.905Z,99708.18
2022-09-23T23:04:58.617Z,99710.30
2022-09-23T23:07:32.368Z,99707.61
2022-09-23T23:10:07.548Z,99709.72
2022-09-23T23:12:41.981Z,99710.22
2022-09-23T23:15:15.917Z,99697.17
2022-09-23T23:17:50.433Z,99697.44
2022-09-23T23:20:23.939Z,99699.47
2022-09-23T23:22:57.132Z,99700.07
2022-09-23T23:25:30.450Z,99703.41
2022-09-23T23:28:05.343Z,99706.74
2022-09-23T23:30:38.343Z,99703.17
2022-09-23T23:33:11.749Z,99703.67
2022-09-23T23:35:53.488Z,99680.92
2022-09-23T23:38:26.725Z,99686.14
2022-09-23T23:41:04.255Z,99684.91
2022-09-23T23:43:37.648Z,99685.72
2022-09-23T23:46:12.258Z,99684.26
2022-09-23T23:48:46.941Z,99692.92
2022-09-23T23:51:20.069Z,99690.63
2022-09-23T23:53:54.258Z,99687.94
2022-09-23T23:56:29.106Z,99690.54
2022-09-23T23:59:04.185Z,99688.27
